createdAt,value
2023-05-18T00:04:09.956Z,71.51
2023-05-18T00:09:12.279Z,71.75
2023-05-18T00:14:14.148Z,71.83
2023-05-18T00:19:16.614Z,71.85
2023-05-18T00:24:19.156Z,71.86
2023-05-18T00:29:20.951Z,71.85
2023-05-18T00:34:22.721Z,72.13
2023-05-18T00:39:24.567Z,72.42
2023-05-18T00:44:26.352Z,72.63
2023-05-18T00:49:28.525Z,73.04
2023-05-18T00:54:34.102Z,73.11
2023-05-18T00:59:36.581Z,72.79
2023-05-18T01:04:41.022Z,72.96
2023-05-18T01:09:43.030Z,73.08
2023-05-18T01:14:56.961Z,73.25
2023-05-18T01:20:29.797Z,73.46
2023-05-18T01:25:50.011Z,73.69
2023-05-18T01:30:53.595Z,73.91
2023-05-18T01:35:55.686Z,74.00
2023-05-18T01:41:18.767Z,73.93
2023-05-18T01:46:38.813Z,73.96
2023-05-18T01:51:47.899Z,74.19
2023-05-18T01:56:53.980Z,74.21
2023-05-18T02:02:00.410Z,74.32
2023-05-18T02:07:03.174Z,74.54
2023-05-18T02:12:06.050Z,74.88
2023-05-18T02:17:08.341Z,75.09
2023-05-18T02:22:10.622Z,75.57
2023-05-18T02:27:14.854Z,76.32
2023-05-18T02:32:16.978Z,76.69
2023-05-18T02:37:19.131Z,76.97
2023-05-18T02:42:21.114Z,77.13
2023-05-18T02:47:23.014Z,77.25
2023-05-18T02:52:25.575Z,77.24
2023-05-18T02:57:27.486Z,77.71
2023-05-18T03:02:29.819Z,77.54
2023-05-18T03:07:32.661Z,77.85
2023-05-18T03:12:34.517Z,77.82
2023-05-18T03:17:36.680Z,77.72
2023-05-18T03:22:38.608Z,77.65
2023-05-18T03:27:40.561Z,77.76
2023-05-18T03:32:42.429Z,77.96
2023-05-18T03:37:44.424Z,78.06
2023-05-18T03:42:46.612Z,77.66
2023-05-18T03:47:48.489Z,77.65
2023-05-18T03:52:52.618Z,77.75
2023-05-18T03:57:54.733Z,77.96
2023-05-18T04:02:57.054Z,77.92
2023-05-18T04:07:59.171Z,77.89
2023-05-18T04:13:01.050Z,77.71
2023-05-18T04:18:03.268Z,77.39
2023-05-18T04:23:05.218Z,76.72
2023-05-18T04:28:07.907Z,76.43
2023-05-18T04:33:10.336Z,76.25
2023-05-18T04:38:12.617Z,76.17
2023-05-18T04:43:14.564Z,76.00
2023-05-18T04:48:19.469Z,75.66
2023-05-18T04:53:22.107Z,75.33
2023-05-18T04:58:24.007Z,74.95
2023-05-18T05:03:26.286Z,74.26
2023-05-18T05:08:28.253Z,73.68
2023-05-18T05:13:30.228Z,73.49
2023-05-18T05:18:32.108Z,72.95
2023-05-18T05:23:33.898Z,72.95
2023-05-18T05:28:35.754Z,72.82
2023-05-18T05:33:37.762Z,71.86
2023-05-18T05:38:39.618Z,71.64
2023-05-18T05:43:41.489Z,70.72
2023-05-18T05:48:43.395Z,70.65
2023-05-18T05:53:47.194Z,69.49
2023-05-18T05:58:49.069Z,69.33
2023-05-18T06:03:51.728Z,69.11
2023-05-18T06:08:53.647Z,68.18
2023-05-18T06:13:55.830Z,68.22
2023-05-18T06:18:58.176Z,67.63
2023-05-18T06:24:01.128Z,67.52
2023-05-18T06:29:03.744Z,66.86
2023-05-18T06:34:07.792Z,66.46
2023-05-18T06:39:10.057Z,66.04
2023-05-18T06:44:12.360Z,64.19
2023-05-18T06:49:14.401Z,62.48
2023-05-18T06:54:16.912Z,62.94
2023-05-18T06:59:18.682Z,63.06
2023-05-18T07:04:20.857Z,63.03
2023-05-18T07:09:23.895Z,61.53
2023-05-18T07:14:25.743Z,60.56
2023-05-18T07:19:28.077Z,60.69
2023-05-18T07:24:31.028Z,59.83
2023-05-18T07:29:34.848Z,60.21
2023-05-18T07:34:36.654Z,59.90
2023-05-18T07:39:38.506Z,59.04
2023-05-18T07:44:40.485Z,58.28
2023-05-18T07:49:42.794Z,58.46
2023-05-18T07:54:44.552Z,57.79
2023-05-18T07:59:46.530Z,57.72
2023-05-18T08:04:48.435Z,57.03
2023-05-18T08:09:50.490Z,56.28
2023-05-18T08:14:52.369Z,55.49
2023-05-18T08:19:55.055Z,55.26
2023-05-18T08:25:00.518Z,53.35
2023-05-18T08:30:02.807Z,53.71
2023-05-18T08:35:05.715Z,53.69
2023-05-18T08:40:10.780Z,53.01
2023-05-18T08:45:42.438Z,53.19
2023-05-18T08:50:46.427Z,52.56
2023-05-18T08:55:53.393Z,52.72
2023-05-18T09:00:57.518Z,52.17
2023-05-18T09:06:01.310Z,51.47
2023-05-18T09:11:04.782Z,51.35
2023-05-18T09:16:07.823Z,50.97
2023-05-18T09:21:11.779Z,50.28
2023-05-18T09:26:13.849Z,51.28
2023-05-18T09:31:22.029Z,50.12
2023-05-18T09:36:26.104Z,51.12
2023-05-18T09:41:28.137Z,49.14
2023-05-18T09:46:34.727Z,48.34
2023-05-18T09:51:38.704Z,46.53
2023-05-18T09:56:40.976Z,46.63
2023-05-18T10:02:11.743Z,46.19
2023-05-18T10:07:16.827Z,46.85
2023-05-18T10:12:21.936Z,46.41
2023-05-18T10:17:27.593Z,44.46
2023-05-18T10:22:29.598Z,45.17
2023-05-18T10:27:36.231Z,45.49
2023-05-18T10:32:39.618Z,44.44
2023-05-18T10:37:49.878Z,43.94
2023-05-18T10:42:53.376Z,42.85
2023-05-18T10:48:01.147Z,43.15
2023-05-18T10:53:05.852Z,43.56
2023-05-18T10:58:13.759Z,42.69
2023-05-18T11:03:17.628Z,42.28
2023-05-18T11:08:26.762Z,40.97
2023-05-18T11:13:31.590Z,40.60
2023-05-18T11:18:38.198Z,40.06
2023-05-18T11:23:40.165Z,41.17
2023-05-18T11:28:47.251Z,39.69
2023-05-18T11:33:50.265Z,39.16
2023-05-18T11:39:04.246Z,37.58
2023-05-18T11:44:12.124Z,37.98
2023-05-18T11:49:16.841Z,37.81
2023-05-18T11:54:18.778Z,37.28
2023-05-18T11:59:38.264Z,38.18
2023-05-18T12:04:47.234Z,38.66
2023-05-18T12:09:49.496Z,35.75
2023-05-18T12:15:01.217Z,36.31
2023-05-18T12:20:04.621Z,36.28
2023-05-18T12:25:08.201Z,35.72
2023-05-18T12:30:20.763Z,36.27
2023-05-18T12:35:24.514Z,36.99
2023-05-18T12:40:28.421Z,37.65
2023-05-18T12:45:33.461Z,36.89
2023-05-18T12:50:38.402Z,37.26
2023-05-18T12:55:40.263Z,37.42
2023-05-18T13:00:48.221Z,37.03
2023-05-18T13:06:04.521Z,36.42
2023-05-18T13:11:14.322Z,37.06
2023-05-18T13:16:16.893Z,37.42
2023-05-18T13:21:18.956Z,36.53
2023-05-18T13:26:22.549Z,36.32
2023-05-18T13:31:24.767Z,36.56
2023-05-18T13:36:29.266Z,36.81
2023-05-18T13:41:31.157Z,35.62
2023-05-18T13:46:33.188Z,35.42
2023-05-18T13:51:35.212Z,36.31
2023-05-18T13:56:36.989Z,35.88
2023-05-18T14:01:41.907Z,35.52
2023-05-18T14:06:44.121Z,35.30
2023-05-18T14:11:45.909Z,34.78
2023-05-18T14:16:48.126Z,34.69
2023-05-18T14:21:49.956Z,35.63
2023-05-18T14:26:53.066Z,35.38
2023-05-18T14:31:55.262Z,35.53
2023-05-18T14:36:57.052Z,35.01
2023-05-18T14:41:59.115Z,34.58
2023-05-18T14:47:01.356Z,35.33
2023-05-18T14:52:03.706Z,35.47
2023-05-18T14:57:05.767Z,35.06
2023-05-18T15:02:07.928Z,34.74
2023-05-18T15:07:10.576Z,36.08
2023-05-18T15:12:12.416Z,37.05
2023-05-18T15:17:14.719Z,37.37
2023-05-18T15:22:16.602Z,36.40
2023-05-18T15:27:18.560Z,37.21
2023-05-18T15:32:20.565Z,37.89
2023-05-18T15:37:22.431Z,38.11
2023-05-18T15:42:25.443Z,37.97
2023-05-18T15:47:27.793Z,37.40
2023-05-18T15:52:30.311Z,36.94
2023-05-18T15:57:32.812Z,37.67
2023-05-18T16:02:34.745Z,39.08
2023-05-18T16:07:37.172Z,39.90
2023-05-18T16:12:38.948Z,40.33
2023-05-18T16:17:41.228Z,40.85
2023-05-18T16:22:43.339Z,41.10
2023-05-18T16:27:45.323Z,42.34
2023-05-18T16:32:47.382Z,43.04
2023-05-18T16:37:49.457Z,42.98
2023-05-18T16:42:51.339Z,43.51
2023-05-18T16:47:53.242Z,43.58
2023-05-18T16:52:55.702Z,44.42
2023-05-18T16:57:57.481Z,44.70
2023-05-18T17:03:00.483Z,45.06
2023-05-18T17:08:02.601Z,45.99
2023-05-18T17:13:04.871Z,46.53
2023-05-18T17:18:06.769Z,47.42
2023-05-18T17:23:11.879Z,47.76
2023-05-18T17:28:16.150Z,48.54
2023-05-18T17:33:17.908Z,48.98
2023-05-18T17:38:22.119Z,49.54
2023-05-18T17:43:24.017Z,49.77
2023-05-18T17:48:25.781Z,50.17
2023-05-18T17:53:27.655Z,50.76
2023-05-18T17:58:29.536Z,51.06
2023-05-18T18:03:32.186Z,51.74
2023-05-18T18:08:34.257Z,52.33
2023-05-18T18:13:36.604Z,52.88
2023-05-18T18:18:38.827Z,53.35
2023-05-18T18:23:40.962Z,53.97
2023-05-18T18:28:42.757Z,54.35
2023-05-18T18:33:47.279Z,54.81
2023-05-18T18:38:49.361Z,54.85
2023-05-18T18:43:53.597Z,55.19
2023-05-18T18:48:55.681Z,55.65
2023-05-18T18:53:57.703Z,56.04
2023-05-18T18:58:59.639Z,56.13
2023-05-18T19:04:01.656Z,56.15
2023-05-18T19:09:04.127Z,56.40
2023-05-18T19:14:05.994Z,56.46
2023-05-18T19:19:10.563Z,56.42
2023-05-18T19:24:13.125Z,56.45
2023-05-18T19:29:15.205Z,56.15
2023-05-18T19:34:17.100Z,55.69
2023-05-18T19:39:19.375Z,55.69
2023-05-18T19:44:21.554Z,55.55
2023-05-18T19:49:23.741Z,55.55
2023-05-18T19:54:25.626Z,55.35
2023-05-18T19:59:29.153Z,55.57
2023-05-18T20:04:33.004Z,55.63
2023-05-18T20:09:35.138Z,55.92
2023-05-18T20:14:38.659Z,56.13
2023-05-18T20:19:45.042Z,56.31
2023-05-18T20:24:48.576Z,56.69
2023-05-18T20:29:50.843Z,56.72
2023-05-18T20:34:52.818Z,57.03
2023-05-18T20:39:57.061Z,57.17
2023-05-18T20:44:58.930Z,57.41
2023-05-18T20:50:03.679Z,57.46
2023-05-18T20:55:06.811Z,57.38
2023-05-18T21:00:10.094Z,57.22
2023-05-18T21:05:13.642Z,57.33
2023-05-18T21:10:16.008Z,57.28
2023-05-18T21:15:17.871Z,57.12
2023-05-18T21:20:20.190Z,57.03
2023-05-18T21:25:22.296Z,56.92
2023-05-18T21:30:24.168Z,57.06
2023-05-18T21:35:27.188Z,56.76
2023-05-18T21:40:29.270Z,57.03
2023-05-18T21:45:31.791Z,57.24
2023-05-18T21:50:34.241Z,57.65
2023-05-18T21:55:36.484Z,57.79
2023-05-18T22:00:39.300Z,58.28
2023-05-18T22:05:44.337Z,58.33
2023-05-18T22:10:46.217Z,58.89
2023-05-18T22:15:48.094Z,59.46
2023-05-18T22:20:50.281Z,59.38
2023-05-18T22:25:52.484Z,59.98
2023-05-18T22:30:54.250Z,60.28
2023-05-18T22:35:56.106Z,60.29
2023-05-18T22:40:58.017Z,60.44
2023-05-18T22:45:59.900Z,60.62
2023-05-18T22:51:03.800Z,60.74
2023-05-18T22:56:06.376Z,61.27
2023-05-18T23:01:08.357Z,61.58
2023-05-18T23:06:10.165Z,61.72
2023-05-18T23:11:11.920Z,61.94
2023-05-18T23:16:14.098Z,62.15
2023-05-18T23:21:15.979Z,62.22
2023-05-18T23:26:17.971Z,62.35
2023-05-18T23:31:21.484Z,62.22
2023-05-18T23:36:26.771Z,61.99
2023-05-18T23:41:33.030Z,62.28
2023-05-18T23:46:35.718Z,62.50
2023-05-18T23:51:39.027Z,62.63
2023-05-18T23:56:41.514Z,62.72
